Hovedside
METAR-TAF:

METAR-TAF

Lufthavner :

Esbjerg, Danmark

Esbjerg lufthavn

breddegrad: 55-32N, lengdegrad: 008-34E, høyde over havet: 30 m

Gjeldene værobservasjon

Denne rapporten ble laget for 28 minutter siden, klokken 20:20 UTC
Vind 7 kt fra Vest
Temperatur 5°C
Luftfuktighet 100%
Trykk 1027 hPa
Sikt: 1800 m
dis

METAR: EKEB 262020Z AUTO 26007KT 1800NDV BR OVC002/// 05/05 Q1027

Tid: 22:48 (20:48 UTC)

Varsel

Denne rapporten ble laget for 47 minutter siden, klokken 20:01 UTC
Varsel gyldig fra 26. klokken 20 UTC til 26. klokken 22 UTC
Vind 5 kt fra Vest-nordvest
Sikt: 5000 m
Brutte skyer i en høyde av 400 ft
Blir
fra 26. klokken 20 UTC til 26. klokken 22 UTC
Sikt: 0400 m
Brutte skyer i en høyde av 100 ft
tåke

TAF: EKEB 262001Z 2620/2622 29005KT 5000 BKN004 BECMG 2620/2622 0400 FG BKN001

Værobservasjoner og værvarsel for over 4000 flyplasser (METAR- og TAF-rapporter).

Tilgjengelige stasjoner er representert av de røde og gule prikkene på kartet.

Hold musepekeren over prikken for å se navnet på stasjonen.

Klikk så for å se værobservasjoner og -varsler.

For å forandre kartet kan du klikke på den grønne knappen med svart kryss for å zoome inn, på den grønne knappen med strek for å zoome ut, eller på de grønne pilene for å se tilstøtende kart.


METAR-TAF: